createdAt,value
2023-04-23T00:01:48.143Z,10.14
2023-04-23T00:04:18.186Z,10.13
2023-04-23T00:06:47.428Z,10.12
2023-04-23T00:09:16.796Z,10.10
2023-04-23T00:11:43.497Z,10.14
2023-04-23T00:14:10.548Z,10.21
2023-04-23T00:16:37.908Z,10.19
2023-04-23T00:19:04.490Z,10.18
2023-04-23T00:21:31.782Z,10.17
2023-04-23T00:23:58.312Z,10.16
2023-04-23T00:26:24.814Z,10.16
2023-04-23T00:28:51.269Z,10.12
2023-04-23T00:31:17.867Z,10.09
2023-04-23T00:33:44.442Z,10.05
2023-04-23T00:36:10.973Z,10.02
2023-04-23T00:38:37.685Z,9.97
2023-04-23T00:41:04.654Z,9.90
2023-04-23T00:43:32.143Z,9.90
2023-04-23T00:45:58.756Z,9.95
2023-04-23T00:48:26.059Z,9.93
2023-04-23T00:51:00.677Z,9.92
2023-04-23T00:53:27.397Z,9.98
2023-04-23T00:55:54.648Z,10.01
2023-04-23T00:58:21.614Z,10.15
2023-04-23T01:00:49.218Z,10.20
2023-04-23T01:03:18.447Z,10.19
2023-04-23T01:05:45.511Z,10.22
2023-04-23T01:08:15.564Z,10.26
2023-04-23T01:10:45.810Z,10.27
2023-04-23T01:13:13.156Z,10.31
2023-04-23T01:15:39.740Z,10.36
2023-04-23T01:18:07.910Z,10.39
2023-04-23T01:20:35.646Z,10.39
2023-04-23T01:23:06.488Z,10.51
2023-04-23T01:25:33.057Z,10.59
2023-04-23T01:27:59.794Z,10.67
2023-04-23T01:30:27.669Z,10.72
2023-04-23T01:32:57.747Z,10.74
2023-04-23T01:35:24.705Z,10.77
2023-04-23T01:37:52.572Z,10.74
2023-04-23T01:40:20.310Z,10.70
2023-04-23T01:42:48.631Z,10.68
2023-04-23T01:45:15.614Z,10.65
2023-04-23T01:47:42.457Z,10.59
2023-04-23T01:50:09.863Z,10.53
2023-04-23T01:52:36.540Z,10.49
2023-04-23T01:55:03.761Z,10.47
2023-04-23T01:57:30.765Z,10.48
2023-04-23T02:00:08.149Z,10.44
2023-04-23T02:02:39.835Z,10.45
2023-04-23T02:05:12.228Z,10.44
2023-04-23T02:07:39.437Z,10.53
2023-04-23T02:10:06.870Z,10.48
2023-04-23T02:12:33.483Z,10.48
2023-04-23T02:15:00.078Z,10.48
2023-04-23T02:17:28.409Z,10.53
2023-04-23T02:19:56.075Z,10.51
2023-04-23T02:22:25.055Z,10.52
2023-04-23T02:24:52.741Z,10.54
2023-04-23T02:27:19.527Z,10.54
2023-04-23T02:29:46.557Z,10.54
2023-04-23T02:32:13.247Z,10.53
2023-04-23T02:34:40.019Z,10.56
2023-04-23T02:37:07.142Z,10.59
2023-04-23T02:39:33.830Z,10.63
2023-04-23T02:42:00.655Z,10.59
2023-04-23T02:44:27.297Z,10.64
2023-04-23T02:46:54.526Z,10.69
2023-04-23T02:49:21.164Z,10.69
2023-04-23T02:51:47.720Z,10.58
2023-04-23T02:54:14.525Z,10.52
2023-04-23T02:56:41.046Z,10.49
2023-04-23T02:59:09.219Z,10.49
2023-04-23T03:01:35.733Z,10.38
2023-04-23T03:04:03.740Z,10.32
2023-04-23T03:06:35.703Z,10.33
2023-04-23T03:09:02.394Z,10.33
2023-04-23T03:11:29.086Z,10.36
2023-04-23T03:13:55.635Z,10.35
2023-04-23T03:16:22.285Z,10.37
2023-04-23T03:18:48.870Z,10.33
2023-04-23T03:21:15.433Z,10.35
2023-04-23T03:23:41.940Z,10.32
2023-04-23T03:26:08.422Z,10.32
2023-04-23T03:28:35.193Z,10.34
2023-04-23T03:31:01.906Z,10.33
2023-04-23T03:33:28.515Z,10.32
2023-04-23T03:35:55.096Z,10.37
2023-04-23T03:38:21.600Z,10.40
2023-04-23T03:40:48.257Z,10.38
2023-04-23T03:43:14.808Z,10.37
2023-04-23T03:45:41.305Z,10.33
2023-04-23T03:48:07.839Z,10.30
2023-04-23T03:50:38.847Z,10.30
2023-04-23T03:53:08.178Z,10.30
2023-04-23T03:55:34.680Z,10.30
2023-04-23T03:58:01.836Z,10.29
2023-04-23T04:00:29.936Z,10.25
2023-04-23T04:02:56.546Z,10.24
2023-04-23T04:05:23.429Z,10.25
2023-04-23T04:07:49.963Z,10.28
2023-04-23T04:10:16.599Z,10.27
2023-04-23T04:12:44.969Z,10.30
2023-04-23T04:15:12.636Z,10.27
2023-04-23T04:17:39.505Z,10.27
2023-04-23T04:20:11.195Z,10.24
2023-04-23T04:22:38.330Z,10.21
2023-04-23T04:25:05.375Z,10.26
2023-04-23T04:27:34.707Z,10.30
2023-04-23T04:30:02.197Z,10.32
2023-04-23T04:32:28.758Z,10.35
2023-04-23T04:34:55.315Z,10.37
2023-04-23T04:37:21.914Z,10.35
2023-04-23T04:39:48.540Z,10.37
2023-04-23T04:42:15.722Z,10.43
2023-04-23T04:44:43.606Z,10.48
2023-04-23T04:47:10.713Z,10.53
2023-04-23T04:49:38.302Z,10.59
2023-04-23T04:52:04.970Z,10.61
2023-04-23T04:54:31.689Z,10.67
2023-04-23T04:56:58.182Z,10.79
2023-04-23T04:59:24.664Z,10.92
2023-04-23T05:01:51.191Z,10.97
2023-04-23T05:04:17.996Z,10.99
2023-04-23T05:06:44.542Z,11.01
2023-04-23T05:09:11.554Z,11.00
2023-04-23T05:11:38.165Z,11.07
2023-04-23T05:14:04.750Z,11.11
2023-04-23T05:16:31.344Z,11.17
2023-04-23T05:18:57.920Z,11.15
2023-04-23T05:21:24.475Z,11.14
2023-04-23T05:23:51.035Z,11.08
2023-04-23T05:26:18.232Z,11.04
2023-04-23T05:28:44.825Z,11.06
2023-04-23T05:31:11.482Z,11.14
2023-04-23T05:33:49.260Z,11.32
2023-04-23T05:36:16.795Z,11.48
2023-04-23T05:38:43.339Z,11.70
2023-04-23T05:41:09.863Z,11.90
2023-04-23T05:43:36.439Z,12.20
2023-04-23T05:46:04.773Z,12.44
2023-04-23T05:48:31.367Z,12.77
2023-04-23T05:50:58.480Z,13.03
2023-04-23T05:53:25.205Z,13.07
2023-04-23T05:55:51.713Z,13.15
2023-04-23T05:58:19.250Z,13.12
2023-04-23T06:00:45.890Z,13.27
2023-04-23T06:03:12.797Z,13.48
2023-04-23T06:05:39.523Z,13.68
2023-04-23T06:08:06.158Z,13.83
2023-04-23T06:10:32.719Z,13.82
2023-04-23T06:12:59.236Z,13.91
2023-04-23T06:15:27.169Z,13.94
2023-04-23T06:17:54.584Z,14.04
2023-04-23T06:20:21.140Z,14.15
2023-04-23T06:22:47.743Z,14.25
2023-04-23T06:25:14.266Z,14.36
2023-04-23T06:27:40.938Z,14.45
2023-04-23T06:30:08.063Z,14.48
2023-04-23T06:32:34.663Z,14.58
2023-04-23T06:35:02.235Z,14.70
2023-04-23T06:37:30.795Z,14.88
2023-04-23T06:39:58.951Z,14.84
2023-04-23T06:42:25.444Z,14.91
2023-04-23T06:44:52.122Z,15.00
2023-04-23T06:47:19.513Z,15.03
2023-04-23T06:49:46.066Z,14.96
2023-04-23T06:52:12.659Z,15.08
2023-04-23T06:54:39.463Z,15.13
2023-04-23T06:57:06.476Z,15.14
2023-04-23T06:59:33.049Z,15.07
2023-04-23T07:01:59.609Z,14.94
2023-04-23T07:04:26.173Z,15.01
2023-04-23T07:06:52.737Z,15.08
2023-04-23T07:09:19.241Z,15.09
2023-04-23T07:11:45.832Z,15.24
2023-04-23T07:14:12.332Z,15.25
2023-04-23T07:16:38.947Z,15.23
2023-04-23T07:19:05.618Z,15.25
2023-04-23T07:21:33.081Z,15.29
2023-04-23T07:24:00.807Z,15.41
2023-04-23T07:26:28.040Z,15.50
2023-04-23T07:28:54.816Z,15.64
2023-04-23T07:31:21.969Z,15.73
2023-04-23T07:33:48.528Z,15.76
2023-04-23T07:36:15.265Z,15.92
2023-04-23T07:38:42.035Z,16.15
2023-04-23T07:41:08.668Z,16.34
2023-04-23T07:43:35.205Z,16.74
2023-04-23T07:46:01.961Z,17.17
2023-04-23T07:48:28.579Z,17.82
2023-04-23T07:50:55.166Z,18.57
2023-04-23T07:53:21.971Z,19.05
2023-04-23T07:55:48.490Z,19.20
2023-04-23T07:58:15.154Z,18.86
2023-04-23T08:00:41.840Z,18.65
2023-04-23T08:03:08.479Z,18.20
2023-04-23T08:05:37.268Z,17.99
2023-04-23T08:08:06.087Z,17.67
2023-04-23T08:10:35.278Z,17.74
2023-04-23T08:13:02.192Z,17.69
2023-04-23T08:15:31.859Z,17.87
2023-04-23T08:17:58.478Z,17.89
2023-04-23T08:20:25.769Z,18.08
2023-04-23T08:22:53.817Z,18.06
2023-04-23T08:25:23.417Z,18.17
2023-04-23T08:27:50.116Z,18.18
2023-04-23T08:30:16.709Z,18.21
2023-04-23T08:32:50.232Z,18.12
2023-04-23T08:58:22.695Z,18.20
2023-04-23T09:00:50.033Z,18.64
2023-04-23T09:03:17.468Z,19.01
2023-04-23T09:05:44.586Z,19.40
2023-04-23T09:08:11.087Z,19.51
2023-04-23T09:10:41.834Z,19.46
2023-04-23T09:13:11.512Z,19.62
2023-04-23T09:15:43.461Z,19.48
2023-04-23T09:18:10.860Z,19.49
2023-04-23T09:20:37.589Z,19.44
2023-04-23T09:23:08.055Z,19.32
2023-04-23T09:25:34.640Z,19.23
2023-04-23T09:28:01.784Z,19.05
2023-04-23T09:30:28.433Z,19.02
2023-04-23T09:32:55.510Z,18.89
2023-04-23T09:35:22.997Z,18.44
2023-04-23T09:37:52.497Z,18.33
2023-04-23T09:40:23.958Z,18.23
2023-04-23T09:42:56.527Z,18.10
2023-04-23T09:45:25.631Z,17.87
2023-04-23T09:47:55.141Z,17.61
2023-04-23T09:50:38.997Z,17.61
2023-04-23T09:53:07.239Z,17.59
2023-04-23T09:55:39.126Z,17.62
2023-04-23T09:58:07.591Z,17.73
2023-04-23T10:00:37.154Z,18.18
2023-04-23T10:03:05.083Z,18.57
2023-04-23T10:05:41.092Z,18.68
2023-04-23T10:08:17.430Z,18.46
2023-04-23T10:10:59.476Z,18.50
2023-04-23T10:13:31.365Z,18.52
2023-04-23T10:16:07.505Z,18.39
2023-04-23T10:18:45.506Z,18.13
2023-04-23T10:21:14.754Z,17.87
2023-04-23T10:23:44.331Z,17.73
2023-04-23T10:26:14.858Z,17.71
2023-04-23T10:28:47.027Z,17.67
2023-04-23T10:31:13.816Z,17.85
2023-04-23T10:33:55.907Z,18.36
2023-04-23T10:36:27.585Z,19.17
2023-04-23T10:38:59.022Z,19.71
2023-04-23T10:41:34.851Z,20.03
2023-04-23T10:44:01.426Z,20.15
2023-04-23T10:46:30.017Z,20.25
2023-04-23T10:49:16.671Z,20.67
2023-04-23T10:54:19.904Z,21.24
2023-04-23T10:56:46.541Z,21.76
2023-04-23T10:59:22.748Z,22.30
2023-04-23T11:01:52.740Z,23.62
2023-04-23T11:04:21.399Z,24.91
2023-04-23T11:06:48.033Z,26.60
2023-04-23T11:09:37.861Z,27.21
2023-04-23T11:12:10.858Z,27.33
2023-04-23T11:14:41.470Z,26.48
2023-04-23T11:17:08.139Z,25.79
2023-04-23T11:19:39.053Z,25.54
2023-04-23T11:22:18.549Z,26.80
2023-04-23T11:24:48.249Z,27.60
2023-04-23T11:27:18.590Z,27.85
2023-04-23T11:29:46.694Z,26.97
2023-04-23T11:32:18.011Z,26.05
2023-04-23T11:34:47.441Z,25.79
2023-04-23T11:37:15.527Z,25.81
2023-04-23T11:39:44.398Z,26.96
2023-04-23T11:42:20.085Z,28.94
2023-04-23T11:44:47.781Z,29.27
2023-04-23T11:47:16.628Z,29.88
2023-04-23T11:49:52.269Z,30.70
2023-04-23T11:52:20.000Z,32.44
2023-04-23T11:54:51.511Z,34.46
2023-04-23T11:57:26.616Z,34.75
2023-04-23T11:59:53.649Z,33.77
2023-04-23T12:02:24.238Z,33.79
2023-04-23T12:04:50.980Z,33.28
2023-04-23T12:07:26.341Z,30.60
2023-04-23T12:10:07.682Z,28.86
2023-04-23T12:12:42.581Z,29.82
2023-04-23T12:52:47.461Z,35.20
2023-04-23T12:55:59.639Z,31.51
2023-04-23T12:58:27.906Z,29.62
2023-04-23T13:00:54.780Z,31.09
2023-04-23T13:03:42.384Z,32.60
2023-04-23T13:13:54.937Z,31.03
2023-04-23T13:16:55.049Z,28.97
2023-04-23T13:19:21.596Z,27.70
2023-04-23T13:21:48.062Z,25.66
2023-04-23T13:24:14.569Z,24.91
2023-04-23T13:26:41.058Z,24.19
2023-04-23T13:29:07.597Z,24.18
2023-04-23T13:31:34.373Z,24.26
2023-04-23T13:34:02.856Z,24.29
2023-04-23T13:36:29.467Z,24.14
2023-04-23T13:38:55.996Z,23.69
2023-04-23T13:41:22.478Z,23.47
2023-04-23T13:43:48.956Z,23.40
2023-04-23T13:46:16.765Z,23.13
2023-04-23T13:48:43.389Z,22.81
2023-04-23T13:51:25.382Z,22.88
2023-04-23T13:53:56.366Z,22.46
2023-04-23T13:56:23.031Z,22.30
2023-04-23T13:58:52.942Z,22.43
2023-04-23T14:01:19.613Z,22.50
2023-04-23T14:03:47.308Z,22.62
2023-04-23T14:06:13.867Z,22.67
2023-04-23T14:08:41.062Z,22.63
2023-04-23T14:11:07.620Z,22.29
2023-04-23T14:13:34.126Z,22.12
2023-04-23T14:16:03.390Z,21.90
2023-04-23T14:18:30.332Z,21.39
2023-04-23T14:20:57.070Z,20.87
2023-04-23T14:23:23.503Z,20.94
2023-04-23T14:26:04.572Z,21.07
2023-04-23T14:28:39.071Z,21.00
2023-04-23T14:31:05.842Z,20.80
2023-04-23T14:33:32.400Z,20.41
2023-04-23T14:35:59.211Z,20.19
2023-04-23T14:38:26.843Z,19.77
2023-04-23T14:40:53.783Z,19.91
2023-04-23T14:43:20.456Z,19.95
2023-04-23T14:45:47.335Z,19.87
2023-04-23T14:48:13.911Z,19.97
2023-04-23T14:50:40.443Z,20.07
2023-04-23T14:53:09.928Z,19.94
2023-04-23T14:55:36.784Z,19.95
2023-04-23T14:58:03.265Z,19.97
2023-04-23T15:00:30.199Z,20.02
2023-04-23T15:02:57.020Z,19.85
2023-04-23T15:05:23.895Z,19.89
2023-04-23T15:07:51.753Z,19.90
2023-04-23T15:10:19.393Z,19.91
2023-04-23T15:12:53.396Z,19.87
2023-04-23T15:15:37.022Z,19.56
2023-04-23T15:18:10.631Z,19.52
2023-04-23T15:20:37.415Z,19.61
2023-04-23T15:23:04.359Z,19.69
2023-04-23T15:25:33.122Z,19.83
2023-04-23T15:28:00.891Z,20.00
2023-04-23T15:30:28.085Z,20.02
2023-04-23T15:32:55.472Z,19.99
2023-04-23T15:35:25.883Z,20.05
2023-04-23T15:37:54.548Z,20.02
2023-04-23T15:40:21.160Z,19.98
2023-04-23T15:42:49.890Z,19.91
2023-04-23T15:45:17.102Z,20.07
2023-04-23T15:47:43.833Z,20.04
2023-04-23T15:50:11.742Z,19.99
2023-04-23T15:52:39.063Z,20.00
2023-04-23T15:55:11.189Z,19.89
2023-04-23T15:57:37.658Z,19.74
2023-04-23T16:00:06.083Z,19.38
2023-04-23T16:02:34.546Z,19.26
2023-04-23T16:05:01.817Z,19.14
2023-04-23T16:07:28.426Z,19.04
2023-04-23T16:09:54.937Z,19.13
2023-04-23T16:12:21.445Z,19.16
2023-04-23T16:14:47.951Z,19.00
2023-04-23T16:17:14.509Z,18.89
2023-04-23T16:19:41.275Z,18.68
2023-04-23T16:22:07.912Z,18.51
2023-04-23T16:24:34.406Z,18.28
2023-04-23T16:27:02.510Z,18.06
2023-04-23T16:29:29.441Z,17.93
2023-04-23T16:31:55.983Z,17.82
2023-04-23T16:34:22.537Z,17.75
2023-04-23T16:36:49.086Z,17.69
2023-04-23T16:39:16.177Z,17.65
2023-04-23T16:41:42.789Z,17.67
2023-04-23T16:44:09.277Z,17.70
2023-04-23T16:46:36.099Z,17.71
2023-04-23T16:49:02.757Z,17.71
2023-04-23T16:51:36.064Z,17.75
2023-04-23T16:54:12.063Z,17.73
2023-04-23T16:56:38.698Z,17.63
2023-04-23T16:59:05.366Z,17.51
2023-04-23T17:01:31.918Z,17.45
2023-04-23T17:03:58.559Z,17.38
2023-04-23T17:06:29.527Z,17.36
2023-04-23T17:08:57.813Z,17.35
2023-04-23T17:11:26.023Z,17.33
2023-04-23T17:13:52.827Z,17.29
2023-04-23T17:16:19.422Z,17.25
2023-04-23T17:18:46.328Z,17.19
2023-04-23T17:21:12.924Z,17.12
2023-04-23T17:23:39.751Z,17.05
2023-04-23T17:26:06.827Z,16.99
2023-04-23T17:28:33.349Z,16.93
2023-04-23T17:31:01.228Z,16.85
2023-04-23T17:33:27.838Z,16.79
2023-04-23T17:35:55.829Z,16.74
2023-04-23T17:38:22.799Z,16.70
2023-04-23T17:40:50.188Z,16.65
2023-04-23T17:43:17.419Z,16.59
2023-04-23T17:45:45.330Z,16.53
2023-04-23T17:48:12.699Z,16.47
2023-04-23T17:50:39.515Z,16.39
2023-04-23T17:53:06.213Z,16.31
2023-04-23T17:55:33.213Z,16.22
2023-04-23T17:58:05.092Z,16.09
2023-04-23T18:00:36.128Z,15.99
2023-04-23T18:03:03.942Z,15.91
2023-04-23T18:05:31.162Z,15.82
2023-04-23T18:07:58.095Z,15.73
2023-04-23T18:10:24.737Z,15.63
2023-04-23T18:12:51.758Z,15.55
2023-04-23T18:15:18.396Z,15.46
2023-04-23T18:17:45.481Z,15.36
2023-04-23T18:20:12.705Z,15.26
2023-04-23T18:22:41.172Z,15.20
2023-04-23T18:25:10.116Z,15.14
2023-04-23T18:27:36.731Z,15.07
2023-04-23T18:30:05.552Z,15.04
2023-04-23T18:32:40.075Z,15.03
2023-04-23T18:35:08.168Z,15.05
2023-04-23T18:37:41.743Z,15.09
2023-04-23T18:40:09.134Z,15.11
2023-04-23T18:42:35.714Z,15.11
2023-04-23T18:45:04.215Z,15.12
2023-04-23T18:47:36.825Z,15.14
2023-04-23T18:50:28.953Z,15.09
2023-04-23T18:52:55.739Z,15.06
2023-04-23T18:55:22.380Z,14.96
2023-04-23T18:57:48.883Z,14.94
2023-04-23T19:00:15.803Z,14.91
2023-04-23T19:02:42.492Z,14.91
2023-04-23T19:05:09.274Z,14.92
2023-04-23T19:07:37.315Z,14.88
2023-04-23T19:10:04.106Z,14.86
2023-04-23T19:12:30.598Z,14.81
2023-04-23T19:14:57.074Z,14.78
2023-04-23T19:17:23.682Z,14.63
2023-04-23T19:19:50.219Z,14.62
2023-04-23T19:22:16.770Z,14.63
2023-04-23T19:24:43.241Z,14.57
2023-04-23T19:27:12.426Z,14.57
2023-04-23T19:29:39.554Z,14.49
2023-04-23T19:32:06.636Z,14.25
2023-04-23T19:34:33.091Z,13.78
2023-04-23T19:36:59.596Z,12.89
2023-04-23T19:39:26.764Z,12.11
2023-04-23T19:41:53.176Z,11.54
2023-04-23T19:44:19.543Z,11.35
2023-04-23T19:46:46.120Z,11.28
2023-04-23T19:49:12.643Z,11.28
2023-04-23T19:51:39.997Z,11.30
2023-04-23T19:54:06.696Z,11.26
2023-04-23T19:56:33.204Z,11.31
2023-04-23T19:58:59.858Z,11.36
2023-04-23T20:01:28.165Z,11.38
2023-04-23T20:03:55.204Z,11.43
2023-04-23T20:06:21.893Z,11.49
2023-04-23T20:09:07.007Z,11.51
2023-04-23T20:11:35.354Z,11.57
2023-04-23T20:14:02.435Z,11.61
2023-04-23T20:16:29.060Z,11.59
2023-04-23T20:18:56.082Z,11.60
2023-04-23T20:21:23.055Z,11.52
2023-04-23T20:23:50.977Z,11.45
2023-04-23T20:26:18.797Z,11.41
2023-04-23T20:28:47.354Z,11.37
2023-04-23T20:31:14.851Z,11.33
2023-04-23T20:33:41.471Z,11.33
2023-04-23T20:36:11.172Z,11.25
2023-04-23T20:38:38.095Z,11.24
2023-04-23T20:41:05.974Z,11.27
2023-04-23T20:43:34.198Z,11.31
2023-04-23T20:46:01.571Z,11.33
2023-04-23T20:48:29.967Z,11.32
2023-04-23T20:50:59.707Z,11.29
2023-04-23T20:53:26.629Z,11.25
2023-04-23T20:55:53.102Z,11.23
2023-04-23T20:58:19.647Z,11.25
2023-04-23T21:00:46.425Z,11.29
2023-04-23T21:03:13.230Z,11.28
2023-04-23T21:05:44.410Z,11.32
2023-04-23T21:08:11.481Z,11.41
2023-04-23T21:10:39.086Z,11.45
2023-04-23T21:13:07.629Z,11.47
2023-04-23T21:15:35.561Z,11.45
2023-04-23T21:18:02.793Z,11.47
2023-04-23T21:20:29.756Z,11.45
2023-04-23T21:22:56.260Z,11.42
2023-04-23T21:25:22.854Z,11.36
2023-04-23T21:27:49.551Z,11.30
2023-04-23T21:30:24.626Z,11.28
2023-04-23T21:32:52.216Z,11.26
2023-04-23T21:35:18.905Z,11.20
2023-04-23T21:37:45.400Z,11.16
2023-04-23T21:40:12.063Z,11.18
2023-04-23T21:42:39.084Z,11.20
2023-04-23T21:45:06.433Z,11.21
2023-04-23T21:47:44.572Z,11.17
2023-04-23T21:50:11.544Z,11.14
2023-04-23T21:52:38.218Z,11.11
2023-04-23T21:55:05.501Z,11.12
2023-04-23T21:57:33.497Z,11.11
2023-04-23T22:00:00.515Z,11.10
2023-04-23T22:02:27.209Z,11.11
2023-04-23T22:04:53.804Z,11.10
2023-04-23T22:07:20.752Z,11.09
2023-04-23T22:09:47.266Z,11.04
2023-04-23T22:12:13.799Z,10.97
2023-04-23T22:14:40.438Z,10.93
2023-04-23T22:17:07.588Z,10.90
2023-04-23T22:19:34.316Z,10.88
2023-04-23T22:22:51.847Z,10.86
2023-04-23T22:25:19.462Z,10.89
2023-04-23T22:27:45.957Z,10.89
2023-04-23T22:30:12.782Z,10.92
2023-04-23T22:32:39.992Z,10.92
2023-04-23T22:35:07.921Z,10.86
2023-04-23T22:37:34.788Z,10.85
2023-04-23T22:40:01.522Z,10.84
2023-04-23T22:42:28.025Z,10.79
2023-04-23T22:44:54.582Z,10.78
2023-04-23T22:47:21.704Z,10.75
2023-04-23T22:49:48.277Z,10.75
2023-04-23T22:52:15.825Z,10.75
2023-04-23T22:54:43.164Z,10.75
2023-04-23T22:57:10.436Z,10.78
2023-04-23T22:59:39.324Z,10.73
2023-04-23T23:02:06.852Z,10.73
2023-04-23T23:04:37.459Z,10.71
2023-04-23T23:07:05.522Z,10.69
2023-04-23T23:09:32.504Z,10.69
2023-04-23T23:12:03.096Z,10.77
2023-04-23T23:14:30.227Z,10.70
2023-04-23T23:16:57.155Z,10.65
2023-04-23T23:19:57.240Z,10.60
2023-04-23T23:58:13.715Z,10.54
